METAR Data
IDs: Format: Raw Decoded Include TAF

Data at: 1859 UTC 16 Oct 2021

KSEP 161855Z AUTO 01009G14KT 10SM CLR 20/00 A3041 RMK AO2 T02000002
KSEP 161835Z AUTO 36011G14KT 10SM CLR 20/00 A3042 RMK AO2 T02001002
KSEP 161815Z AUTO 02008KT 10SM CLR 20/M01 A3043 RMK AO2 T01971007
KSEP 161755Z AUTO 02008KT 10SM CLR 20/M01 A3044 RMK AO2 T01961006 10199 20080
KSEP 161735Z AUTO 04009KT 10SM CLR 20/M01 A3044 RMK AO2 T01951011
KSEP 161715Z AUTO 03005KT 10SM CLR 19/00 A3045 RMK AO2 T01940003
KSEP 161655Z AUTO 04008KT 10SM CLR 19/00 A3045 RMK AO2 T01911003
KSEP 161635Z AUTO 06008KT 10SM CLR 19/01 A3045 RMK AO2 T01850006
KSEP 161615Z AUTO 02007KT 10SM CLR 18/01 A3045 RMK AO2 T01800006
KSEP 161555Z AUTO 01007KT 10SM CLR 17/03 A3044 RMK AO2 T01730027
KSEP 161535Z AUTO 02006KT 10SM CLR 17/06 A3044 RMK AO2 T01680056
KSEP 161515Z AUTO 02006KT 10SM CLR 16/06 A3044 RMK AO2 T01600056
KSEP 161455Z AUTO 01005KT 10SM CLR 15/06 A3043 RMK AO2 T01480062
KSEP 161435Z AUTO 00000KT 10SM CLR 13/07 A3043 RMK AO2 T01290065
KSEP 161415Z AUTO 33004KT 10SM CLR 12/06 A3042 RMK AO2 T01200060
KSEP 161355Z AUTO 00000KT 10SM CLR 11/06 A3041 RMK AO2 T01070060
KSEP 161335Z AUTO 00000KT 10SM CLR 10/05 A3040 RMK AO2 T01030052
KSEP 161315Z AUTO 32004KT 10SM CLR 09/05 A3040 RMK AO2 T00910051
KSEP 161255Z AUTO 33003KT 10SM CLR 09/05 A3039 RMK AO2 T00870046
KSEP 161235Z AUTO 33003KT 10SM CLR 09/05 A3038 RMK AO2 T00870048
KSEP 161215Z AUTO 34005KT 10SM CLR 08/05 A3037 RMK AO2 T00810049
KSEP 161155Z AUTO 34004KT 10SM CLR 09/05 A3037 RMK AO2 70001 T00910046 10118 20085
KSEP 161135Z AUTO 35004KT 10SM CLR 10/05 A3037 RMK AO2 T00950045
KSEP 161115Z AUTO 36004KT 10SM CLR 09/05 A3036 RMK AO2 T00890050
KSEP 161055Z AUTO 34004KT 10SM CLR 09/05 A3036 RMK AO2 T00890049
KSEP 161035Z AUTO 33004KT 10SM CLR 09/05 A3036 RMK AO2 T00860050
KSEP 161015Z AUTO 32003KT 10SM CLR 09/05 A3036 RMK AO2 T00940052
KSEP 160955Z AUTO 00000KT 10SM CLR 09/05 A3036 RMK AO2 T00880049
KSEP 160935Z AUTO 00000KT 10SM CLR 09/05 A3035 RMK AO2 T00910052
KSEP 160915Z AUTO 33003KT 10SM CLR 09/06 A3036 RMK AO2 T00910055
KSEP 160855Z AUTO 33005KT 10SM CLR 09/06 A3036 RMK AO2 T00910059
KSEP 160835Z AUTO 32004KT 10SM CLR 09/06 A3036 RMK AO2 T00860057
KSEP 160815Z AUTO 31005KT 10SM SCT110 09/06 A3036 RMK AO2 T00880057
KSEP 160755Z AUTO 32005KT 10SM CLR 10/06 A3036 RMK AO2 T00950057
KSEP 160735Z AUTO 33005KT 10SM CLR 10/06 A3036 RMK AO2 T01000060
KSEP 160715Z AUTO 33004KT 10SM CLR 11/06 A3035 RMK AO2 T01060057
KSEP 160655Z AUTO 34005KT 10SM CLR 11/05 A3035 RMK AO2 T01140052
KSEP 160635Z AUTO 35006KT 10SM CLR 11/06 A3034 RMK AO2 T01140055
KSEP 160615Z AUTO 34007KT 10SM CLR 12/06 A3033 RMK AO2 T01150057
KSEP 160555Z AUTO 35006KT 10SM CLR 12/06 A3033 RMK AO2 T01180059 10193 20116 402260116
KSEP 160535Z AUTO 34005KT 10SM CLR 12/06 A3033 RMK AO2 T01170062
KSEP 160515Z AUTO 34004KT 10SM CLR 12/06 A3032 RMK AO2 T01180062
KSEP 160455Z AUTO 31003KT 10SM CLR 13/06 A3032 RMK AO2 T01310061
KSEP 160435Z AUTO 33004KT 10SM CLR 13/06 A3031 RMK AO2 T01300061
KSEP 160415Z AUTO 35005KT 10SM CLR 13/06 A3031 RMK AO2 T01330062
KSEP 160355Z AUTO 35008KT 10SM CLR 14/06 A3030 RMK AO2 T01390062
KSEP 160335Z AUTO 36009KT 10SM CLR 15/06 A3029 RMK AO2 T01450064
KSEP 160315Z AUTO 36006KT 10SM CLR 14/07 A3028 RMK AO2 T01430069
KSEP 160255Z AUTO 01006KT 10SM CLR 15/07 A3027 RMK AO2 T01450070
KSEP 160235Z AUTO 02004KT 10SM CLR 15/07 A3027 RMK AO2 T01510070
KSEP 160215Z AUTO 01007KT 10SM CLR 15/07 A3026 RMK AO2 T01530071
KSEP 160155Z AUTO 01006KT 10SM CLR 16/07 A3025 RMK AO2 T01590070
KSEP 160135Z AUTO 36009KT 10SM CLR 16/07 A3024 RMK AO2 T01640070
KSEP 160115Z AUTO 36007KT 10SM CLR 17/07 A3022 RMK AO2 T01680068
KSEP 160055Z AUTO 35008KT 10SM CLR 17/07 A3021 RMK AO2 T01730066
KSEP 160035Z AUTO 35011KT 10SM CLR 18/07 A3020 RMK AO2 T01800065
KSEP 160015Z AUTO 35012KT 10SM CLR 19/06 A3019 RMK AO2 T01850064
KSEP 152355Z AUTO 35013G17KT 10SM CLR 19/06 A3019 RMK AO2 T01940064 10226 20194
KSEP 152335Z AUTO 35014G22KT 10SM CLR 20/07 A3017 RMK AO2 T02010069
KSEP 152315Z AUTO 35016G21KT 10SM CLR 21/07 A3017 RMK AO2 T02080072
KSEP 152255Z AUTO 35014G22KT 10SM CLR 21/08 A3016 RMK AO2 T02140081
KSEP 152235Z AUTO 36015G22KT 10SM CLR 22/09 A3015 RMK AO2 T02170085
KSEP 152215Z AUTO 35014G18KT 10SM CLR 22/09 A3014 RMK AO2 T02200092
KSEP 152155Z AUTO 34014G18KT 10SM CLR 23/10 A3014 RMK AO2 T02250097
KSEP 152135Z AUTO 33017G23KT 10SM CLR 22/10 A3014 RMK AO2 T02230098
KSEP 152115Z AUTO 34016G23KT 10SM CLR 22/10 A3014 RMK AO2 T02220098
KSEP 152055Z AUTO 35012G20KT 10SM CLR 22/10 A3013 RMK AO2 T02230101
KSEP 152035Z AUTO 35018G27KT 10SM CLR 22/10 A3013 RMK AO2 T02220102
KSEP 152015Z AUTO 34017G22KT 10SM CLR 22/11 A3012 RMK AO2 T02240108
KSEP 151955Z AUTO 36017G23KT 10SM CLR 22/11 A3012 RMK AO2 T02210113
KSEP 151935Z AUTO 34020G24KT 10SM CLR 22/12 A3012 RMK AO2 T02230120
KSEP 151915Z AUTO 34015G18KT 10SM CLR 22/12 A3012 RMK AO2 T02220122
KSEP 151855Z AUTO 35016G22KT 10SM CLR 22/12 A3012 RMK AO2 T02170124
KSEP 151835Z AUTO 34014G21KT 10SM CLR 21/13 A3012 RMK AO2 T02100128
KSEP 151815Z AUTO 35014G22KT 10SM SCT020 21/13 A3012 RMK AO2 T02060130
KSEP 151755Z AUTO 32014G19KT 10SM BKN020 21/14 A3012 RMK AO2 60001 T02060137 10207 20155
KSEP 151735Z AUTO 33016G19KT 10SM OVC018 19/13 A3012 RMK AO2 T01900134
KSEP 151715Z AUTO 33011G20KT 10SM OVC018 19/14 A3012 RMK AO2 T01930140
KSEP 151655Z AUTO 33016G20KT 10SM BKN010 OVC021 18/14 A3012 RMK AO2 T01830139
KSEP 151635Z AUTO 32012G18KT 10SM OVC010 18/14 A3011 RMK AO2 T01750138
KSEP 151615Z AUTO 32015G21KT 10SM OVC008 16/14 A3010 RMK AO2 T01630136
KSEP 151555Z AUTO 32014G21KT 10SM OVC008 16/13 A3009 RMK AO2 T01590134
KSEP 151535Z AUTO 31015G23KT 10SM OVC008 16/13 A3008 RMK AO2 T01570134
KSEP 151515Z AUTO 32015G19KT 10SM OVC010 16/13 A3007 RMK AO2 T01550131
KSEP 151455Z AUTO 32012G15KT 10SM BKN010 16/13 A3006 RMK AO2 P0001 60001 T01600132
KSEP 151435Z AUTO 32013G20KT 10SM CLR 17/14 A3004 RMK AO2 P0001 T01650137
KSEP 151415Z AUTO 32012KT 10SM SCT009 17/15 A3002 RMK AO2 P0001 T01660149
KSEP 151355Z AUTO 31009KT 10SM SCT009 19/17 A3000 RMK AO2 T01850172
KSEP 151335Z AUTO 28008KT 10SM BKN009 20/19 A2999 RMK AO2 T01990188
KSEP 151315Z AUTO 27006KT 10SM BKN007 OVC011 21/20 A2997 RMK AO2 T02050195
KSEP 151255Z AUTO 26005KT 7SM OVC005 21/20 A2997 RMK AO2 T02070197
KSEP 151235Z AUTO 25004KT 7SM OVC005 21/20 A2996 RMK AO2 T02060197
KSEP 151215Z AUTO 24003KT 5SM OVC005 21/20 A2994 RMK AO2 T02060197
KSEP 151155Z AUTO 21005KT 5SM OVC003 21/20 A2993 RMK AO2 70001 T02070197 10208 20195
KSEP 151135Z AUTO 20004KT 4SM OVC003 21/20 A2992 RMK AO2 T02080198
KSEP 151115Z AUTO 19007KT 3SM OVC003 21/20 A2991 RMK AO2 T02070197
KSEP 151055Z AUTO 19005KT 2 1/2SM OVC003 21/20 A2991 RMK AO2 T02070197
KSEP 151035Z AUTO 19006KT 3SM OVC003 20/19 A2990 RMK AO2 T02030194
KSEP 151015Z AUTO 18004KT 4SM BKN005 20/19 A2990 RMK AO2 T01970188
KSEP 150955Z AUTO 17004KT 3SM SCT001 SCT110 20/19 A2990 RMK AO2 T01950186
KSEP 150935Z AUTO 18004KT 2 1/2SM BKN001 20/19 A2990 RMK AO2 T01960186
KSEP 150915Z AUTO 19004KT 1 1/2SM OVC001 20/19 A2990 RMK AO2 T01960186
KSEP 150855Z AUTO 17004KT 3SM SCT001 SCT007 SCT090 20/19 A2990 RMK AO2 T01970187
KSEP 150835Z AUTO 19005KT 5SM CLR 20/19 A2989 RMK AO2 T02000190
KSEP 150815Z AUTO 18004KT 5SM CLR 20/19 A2989 RMK AO2 T02000190
KSEP 150755Z AUTO 17005KT 4SM CLR 20/19 A2989 RMK AO2 T02000190
KSEP 150735Z AUTO 19004KT 3SM SCT100 20/19 A2989 RMK AO2 T02010191
KSEP 150715Z AUTO 18005KT 4SM SCT001 20/19 A2989 RMK AO2 T02030192